Time;durP1;ratioP1;P1;durP2;ratioP2;P2;SDS_P1;SDS_P2;PMS_P1;PMS_P2;Temp;Humidity;BMP_temperature;BMP_pressure;BME280_temperature;BME280_humidity;BME280_pressure;Samples;Min_cycle;Max_cycle;Signal;HPM_P1;HPM_P2
2021/11/09 00:02:04;;;;;;;0.70;0.50;;;6.30;99.90;;;;;;5053303;28;20235;-69
2021/11/09 00:04:38;;;;;;;0.80;0.53;;;6.30;99.90;;;;;;5053136;28;20175;-69
2021/11/09 00:07:23;;;;;;;0.80;0.70;;;6.30;99.90;;;;;;5053618;28;20405;-70
2021/11/09 00:10:06;;;;;;;0.70;0.50;;;6.20;99.90;;;;;;5053944;28;20773;-69
2021/11/09 00:12:41;;;;;;;0.70;0.50;;;6.20;99.90;;;;;;5054047;28;20950;-69
2021/11/09 00:15:09;;;;;;;0.70;0.53;;;6.20;99.90;;;;;;5052716;28;20826;-69
2021/11/09 00:17:36;;;;;;;0.70;0.40;;;6.20;99.90;;;;;;5052925;28;20457;-69
2021/11/09 00:20:07;;;;;;;0.70;0.50;;;6.20;99.90;;;;;;5053073;28;20421;-69
2021/11/09 00:22:32;;;;;;;0.77;0.60;;;6.10;99.90;;;;;;5053545;28;20406;-70
2021/11/09 00:24:58;;;;;;;1.47;1.07;;;6.10;99.90;;;;;;5054543;28;20418;-70
2021/11/09 00:27:24;;;;;;;0.70;0.50;;;6.00;99.90;;;;;;5053833;28;20194;-70
2021/11/09 00:29:50;;;;;;;0.90;0.90;;;6.00;99.90;;;;;;5053258;28;20262;-70
2021/11/09 00:32:16;;;;;;;0.70;0.63;;;5.90;99.90;;;;;;5053140;28;20623;-70
2021/11/09 00:34:44;;;;;;;0.70;0.50;;;5.90;99.90;;;;;;5052841;28;20171;-70
2021/11/09 00:37:10;;;;;;;0.70;0.50;;;5.90;99.90;;;;;;5052749;28;20406;-70
2021/11/09 00:39:37;;;;;;;0.80;0.70;;;5.80;99.90;;;;;;5053588;28;20406;-69
2021/11/09 00:42:03;;;;;;;0.70;0.50;;;5.80;99.90;;;;;;5051249;28;20450;-69
2021/11/09 00:44:29;;;;;;;1.63;0.93;;;5.70;99.90;;;;;;5052939;28;20830;-69
2021/11/09 00:46:55;;;;;;;0.70;0.50;;;5.60;99.90;;;;;;5053277;28;20909;-70
2021/11/09 00:49:21;;;;;;;0.70;0.60;;;5.60;99.90;;;;;;5052380;28;20445;-69
2021/11/09 00:51:48;;;;;;;2.50;1.63;;;5.80;99.90;;;;;;5053269;28;20206;-70
2021/11/09 00:54:14;;;;;;;0.73;0.57;;;5.80;99.90;;;;;;5053520;28;20496;-70
2021/11/09 00:56:40;;;;;;;3.43;3.23;;;5.90;99.90;;;;;;5053193;28;20504;-69
2021/11/09 00:59:07;;;;;;;0.70;0.40;;;5.90;99.90;;;;;;5053141;28;20626;-69
2021/11/09 01:01:33;;;;;;;0.70;0.50;;;5.90;99.90;;;;;;5053163;28;20449;-69
2021/11/09 01:03:59;;;;;;;0.70;0.50;;;5.90;99.90;;;;;;5052921;28;20416;-68
2021/11/09 01:06:25;;;;;;;1.07;0.97;;;5.90;99.90;;;;;;5051964;28;20410;-69
2021/11/09 01:08:51;;;;;;;0.70;0.50;;;5.90;99.90;;;;;;5051717;28;20575;-69
2021/11/09 01:11:17;;;;;;;0.70;0.50;;;5.90;99.90;;;;;;5052840;28;20822;-70
2021/11/09 01:13:43;;;;;;;0.70;0.50;;;5.90;99.90;;;;;;5052746;28;20417;-70
2021/11/09 01:16:09;;;;;;;0.83;0.83;;;5.90;99.90;;;;;;5052541;28;20496;-70
2021/11/09 01:18:40;;;;;;;4.30;1.33;;;5.90;99.90;;;;;;5051650;28;20191;-69
2021/11/09 01:21:06;;;;;;;0.70;0.40;;;5.90;99.90;;;;;;5053094;28;20171;-70
2021/11/09 01:23:32;;;;;;;0.70;0.50;;;5.90;99.90;;;;;;5052736;28;20437;-70
2021/11/09 01:25:59;;;;;;;0.70;0.50;;;5.80;99.90;;;;;;5051915;28;20431;-70
2021/11/09 01:28:26;;;;;;;1.70;0.90;;;5.70;99.90;;;;;;5051679;28;20445;-70
2021/11/09 01:30:52;;;;;;;0.90;0.77;;;5.70;99.90;;;;;;5050535;28;20457;-70
2021/11/09 01:33:19;;;;;;;0.70;0.50;;;5.70;99.90;;;;;;5051566;28;20500;-70
2021/11/09 01:35:45;;;;;;;0.70;0.50;;;5.70;99.90;;;;;;5051501;28;20417;-70
2021/11/09 01:38:10;;;;;;;0.80;0.80;;;5.60;99.90;;;;;;5052904;28;20790;-70
2021/11/09 01:40:39;;;;;;;0.70;0.53;;;5.50;99.90;;;;;;5052609;28;20413;-69
2021/11/09 01:43:06;;;;;;;0.70;0.50;;;5.50;99.90;;;;;;5052374;28;20175;-69
2021/11/09 01:45:32;;;;;;;0.80;0.70;;;5.50;99.90;;;;;;5051966;28;20406;-69
2021/11/09 01:47:58;;;;;;;0.80;0.60;;;5.40;99.90;;;;;;5052207;28;21013;-69
2021/11/09 01:50:31;;;;;;;2.23;1.40;;;5.30;99.90;;;;;;5050809;28;20171;-69
2021/11/09 01:52:57;;;;;;;1.20;1.10;;;5.30;99.90;;;;;;5052915;28;20402;-69
2021/11/09 01:55:26;;;;;;;0.70;0.47;;;5.40;99.90;;;;;;5052213;28;20401;-69
2021/11/09 01:57:53;;;;;;;1.40;1.07;;;5.30;99.90;;;;;;5053704;28;20476;-71
2021/11/09 02:00:23;;;;;;;0.73;0.57;;;5.30;99.90;;;;;;5054357;28;20409;-69
2021/11/09 02:02:51;;;;;;;1.07;0.97;;;5.30;99.90;;;;;;5051445;28;20477;-70
2021/11/09 02:05:17;;;;;;;1.00;0.80;;;5.20;99.90;;;;;;5052112;28;20846;-70
2021/11/09 02:07:55;;;;;;;0.90;0.80;;;5.20;99.90;;;;;;5050827;28;20519;-69
2021/11/09 02:10:24;;;;;;;0.70;0.50;;;5.10;99.90;;;;;;5050791;28;20727;-70
2021/11/09 02:12:50;;;;;;;1.53;1.13;;;5.10;99.90;;;;;;5052254;28;20802;-70
2021/11/09 02:15:16;;;;;;;0.80;0.77;;;5.20;99.90;;;;;;5052151;28;20416;-70
2021/11/09 02:17:45;;;;;;;1.27;1.03;;;5.20;99.90;;;;;;5052070;28;20201;-69
2021/11/09 02:20:13;;;;;;;0.70;0.60;;;5.10;99.90;;;;;;5052188;28;20761;-68
2021/11/09 02:22:40;;;;;;;1.57;0.80;;;5.10;99.90;;;;;;5051606;28;20421;-69
2021/11/09 02:25:09;;;;;;;0.70;0.50;;;5.00;99.90;;;;;;5051879;28;20445;-69
2021/11/09 02:27:36;;;;;;;0.70;0.47;;;5.00;99.90;;;;;;5067229;28;20456;-69
2021/11/09 02:30:04;;;;;;;0.70;0.50;;;4.80;99.90;;;;;;5051277;28;20457;-70
2021/11/09 02:32:30;;;;;;;0.70;0.50;;;4.70;99.90;;;;;;5051168;28;20460;-69
2021/11/09 02:34:56;;;;;;;1.57;1.47;;;4.60;99.90;;;;;;5050124;28;20980;-70
2021/11/09 02:37:21;;;;;;;0.70;0.50;;;4.50;99.90;;;;;;5051631;28;20198;-69
2021/11/09 02:39:47;;;;;;;1.10;0.60;;;4.50;99.90;;;;;;5051427;28;20179;-69
2021/11/09 02:42:16;;;;;;;2.17;1.13;;;4.50;99.90;;;;;;5051779;28;20249;-69
2021/11/09 02:45:01;;;;;;;0.70;0.50;;;4.50;99.90;;;;;;5050586;28;20459;-70
2021/11/09 02:47:30;;;;;;;0.70;0.50;;;4.40;99.90;;;;;;5055257;28;20997;-70
2021/11/09 02:52:22;;;;;;;0.70;0.50;;;4.60;99.90;;;;;;5055167;28;20558;-69
2021/11/09 02:54:51;;;;;;;0.70;0.50;;;4.50;99.90;;;;;;5055030;28;20724;-69
2021/11/09 03:00:20;;;;;;;1.10;0.80;;;4.60;99.90;;;;;;5055254;28;20404;-69
2021/11/09 03:02:54;;;;;;;0.70;0.50;;;4.70;99.90;;;;;;5033961;28;20436;-70
2021/11/09 03:05:40;;;;;;;0.70;0.50;;;4.70;99.90;;;;;;5034825;28;20436;-69
2021/11/09 03:08:26;;;;;;;0.70;0.50;;;4.60;99.90;;;;;;5034921;28;20454;-70
2021/11/09 03:10:53;;;;;;;0.70;0.50;;;4.70;99.90;;;;;;5054623;28;20453;-69
2021/11/09 03:13:20;;;;;;;0.80;0.67;;;4.70;99.90;;;;;;5054874;28;20775;-69
2021/11/09 03:15:47;;;;;;;0.90;0.77;;;4.70;99.90;;;;;;5054154;28;20429;-70
2021/11/09 03:18:15;;;;;;;0.70;0.50;;;4.60;99.90;;;;;;5055009;28;20463;-69
2021/11/09 03:45:35;;;;;;;0.70;0.40;;;4.30;99.90;;;;;;5054277;28;20863;-69
2021/11/09 03:48:08;;;;;;;0.70;0.50;;;4.30;99.90;;;;;;5054119;28;20433;-69
2021/11/09 03:50:37;;;;;;;3.63;1.27;;;4.30;99.90;;;;;;5053940;28;20266;-69
2021/11/09 03:53:14;;;;;;;0.70;0.50;;;4.30;99.90;;;;;;5053639;28;20428;-69
2021/11/09 03:58:24;;;;;;;0.70;0.60;;;4.30;99.90;;;;;;5052859;28;20449;-70
2021/11/09 04:00:56;;;;;;;0.70;0.40;;;4.30;99.90;;;;;;5053802;28;20406;-69
2021/11/09 04:03:36;;;;;;;0.70;0.50;;;4.30;99.90;;;;;;5053683;28;20394;-69
2021/11/09 04:06:22;;;;;;;0.73;0.60;;;4.20;99.90;;;;;;5033639;28;20942;-69
2021/11/09 04:09:14;;;;;;;3.73;3.23;;;4.20;99.90;;;;;;5053400;28;20516;-69
2021/11/09 04:11:59;;;;;;;0.80;0.70;;;4.20;99.90;;;;;;5053928;28;20507;-69
2021/11/09 04:17:02;;;;;;;0.70;0.50;;;4.20;99.90;;;;;;5054347;28;20973;-70
2021/11/09 04:29:58;;;;;;;0.80;0.60;;;4.50;99.90;;;;;;5054261;28;20175;-70
2021/11/09 04:32:39;;;;;;;1.37;1.27;;;4.50;99.90;;;;;;5052993;28;20981;-70
2021/11/09 04:41:31;;;;;;;0.70;0.50;;;4.40;99.90;;;;;;5053177;28;20467;-70
2021/11/09 05:10:31;;;;;;;0.70;0.50;;;4.10;99.90;;;;;;5042677;28;20416;-69
2021/11/09 05:12:57;;;;;;;0.70;0.40;;;4.10;99.90;;;;;;5052227;28;20453;-69
2021/11/09 05:15:23;;;;;;;0.70;0.50;;;4.10;99.90;;;;;;5051918;28;20401;-69
2021/11/09 05:17:48;;;;;;;0.70;0.50;;;4.10;99.90;;;;;;5052088;28;20688;-70
2021/11/09 05:20:14;;;;;;;1.10;1.00;;;4.10;99.90;;;;;;5051845;28;20257;-69
2021/11/09 05:22:40;;;;;;;0.70;0.40;;;4.10;99.90;;;;;;5052143;28;20170;-69
2021/11/09 05:25:06;;;;;;;0.70;0.60;;;4.10;99.90;;;;;;5051687;28;20201;-69
2021/11/09 05:27:32;;;;;;;0.70;0.60;;;4.10;99.90;;;;;;5051730;28;20195;-69
2021/11/09 05:29:57;;;;;;;0.77;0.60;;;4.00;99.90;;;;;;5051494;28;20440;-69
2021/11/09 05:32:23;;;;;;;0.70;0.40;;;4.00;99.90;;;;;;5051875;28;20456;-69
2021/11/09 05:34:49;;;;;;;0.70;0.50;;;4.10;99.90;;;;;;5051802;28;20198;-69
2021/11/09 05:37:19;;;;;;;1.13;1.03;;;4.10;99.90;;;;;;5050569;28;20518;-70
2021/11/09 05:39:51;;;;;;;0.70;0.40;;;4.10;99.90;;;;;;5051926;28;20731;-70
2021/11/09 05:42:17;;;;;;;0.70;0.50;;;4.10;99.90;;;;;;5051494;28;20929;-69
2021/11/09 05:44:43;;;;;;;0.70;0.50;;;4.10;99.90;;;;;;5051861;28;20397;-69
2021/11/09 05:47:09;;;;;;;0.70;0.40;;;4.20;99.90;;;;;;5051271;28;20225;-69
2021/11/09 05:49:35;;;;;;;0.70;0.47;;;4.20;99.90;;;;;;5051668;28;20918;-69
2021/11/09 05:52:01;;;;;;;0.70;0.50;;;4.20;99.90;;;;;;5050617;28;20461;-69
2021/11/09 05:54:27;;;;;;;0.70;0.50;;;4.20;99.90;;;;;;5051682;28;20209;-69
2021/11/09 05:56:53;;;;;;;1.10;1.00;;;4.10;99.90;;;;;;5066740;28;20460;-69
2021/11/09 05:59:19;;;;;;;0.73;0.50;;;4.10;99.90;;;;;;5051254;28;20186;-70
2021/11/09 06:01:44;;;;;;;0.70;0.60;;;4.10;99.90;;;;;;5051615;28;20182;-69
2021/11/09 06:04:10;;;;;;;0.70;0.60;;;4.20;99.90;;;;;;5051514;28;20535;-70
2021/11/09 06:06:36;;;;;;;0.70;0.50;;;4.10;99.90;;;;;;5051441;28;20447;-70
2021/11/09 06:09:01;;;;;;;0.97;0.73;;;4.10;99.90;;;;;;5051366;28;20229;-70
2021/11/09 06:11:27;;;;;;;0.70;0.50;;;4.10;99.90;;;;;;5051515;28;20655;-69
2021/11/09 06:13:52;;;;;;;0.93;0.90;;;4.10;99.90;;;;;;5051910;28;20170;-69
2021/11/09 06:16:18;;;;;;;0.80;0.70;;;4.20;99.90;;;;;;5051125;28;20235;-69
2021/11/09 06:18:44;;;;;;;0.70;0.60;;;4.20;99.90;;;;;;5051176;28;20691;-70
2021/11/09 06:21:10;;;;;;;0.70;0.50;;;4.20;99.90;;;;;;5054251;28;20179;-69
2021/11/09 06:23:35;;;;;;;1.00;0.80;;;4.20;99.90;;;;;;5055330;28;20586;-69
2021/11/09 06:26:01;;;;;;;0.70;0.50;;;4.10;99.90;;;;;;5055055;28;20409;-68
2021/11/09 06:28:28;;;;;;;0.70;0.60;;;4.10;99.90;;;;;;5054331;28;20199;-69
2021/11/09 06:30:53;;;;;;;0.70;0.50;;;4.10;99.90;;;;;;5055309;28;20921;-69
2021/11/09 06:33:20;;;;;;;0.80;0.70;;;4.10;99.90;;;;;;5054754;28;20417;-69
2021/11/09 06:35:46;;;;;;;0.70;0.60;;;4.20;99.90;;;;;;5054871;28;20256;-70
2021/11/09 06:38:12;;;;;;;1.00;0.90;;;4.20;99.90;;;;;;5054897;28;20483;-69
2021/11/09 06:40:38;;;;;;;0.70;0.50;;;4.10;99.90;;;;;;5055144;28;20175;-68
2021/11/09 06:43:03;;;;;;;0.70;0.50;;;4.10;99.90;;;;;;5055214;28;20436;-68
2021/11/09 06:45:29;;;;;;;6.33;3.03;;;4.10;99.90;;;;;;5054784;28;20187;-70
2021/11/09 06:47:55;;;;;;;0.70;0.50;;;4.10;99.90;;;;;;5068113;28;20206;-69
2021/11/09 06:50:22;;;;;;;1.23;1.07;;;4.10;99.90;;;;;;5055092;28;20175;-69
2021/11/09 06:52:48;;;;;;;1.00;0.60;;;4.20;99.90;;;;;;5054917;28;20523;-69
2021/11/09 06:55:14;;;;;;;0.70;0.60;;;4.20;99.90;;;;;;5054527;28;20413;-69
2021/11/09 06:57:41;;;;;;;0.70;0.50;;;4.30;99.90;;;;;;5054888;28;20265;-68
2021/11/09 07:00:12;;;;;;;0.70;0.50;;;4.30;99.90;;;;;;5053641;28;20175;-70
2021/11/09 07:02:38;;;;;;;1.77;1.67;;;4.40;99.90;;;;;;5054579;28;20520;-69
2021/11/09 07:05:04;;;;;;;0.70;0.50;;;4.50;99.90;;;;;;5054577;28;20496;-69
2021/11/09 07:07:30;;;;;;;0.70;0.50;;;4.50;99.90;;;;;;5054349;28;20676;-69
2021/11/09 07:09:55;;;;;;;0.70;0.57;;;4.60;99.90;;;;;;5053310;28;20420;-70
2021/11/09 07:12:21;;;;;;;0.70;0.50;;;4.70;99.90;;;;;;5054441;28;20453;-69
2021/11/09 07:14:47;;;;;;;0.70;0.50;;;4.80;99.90;;;;;;5054198;28;20182;-69
2021/11/09 07:17:12;;;;;;;0.70;0.50;;;4.90;99.90;;;;;;5054227;28;20406;-69
2021/11/09 07:19:40;;;;;;;0.70;0.50;;;5.00;99.90;;;;;;5054298;28;20190;-70
2021/11/09 07:22:06;;;;;;;0.80;0.67;;;5.20;99.90;;;;;;5054157;28;20224;-69
2021/11/09 07:24:31;;;;;;;0.70;0.50;;;5.30;99.90;;;;;;5054499;28;20496;-69
2021/11/09 07:26:59;;;;;;;0.80;0.73;;;5.50;99.90;;;;;;5052762;28;20189;-69
2021/11/09 07:29:24;;;;;;;3.43;1.97;;;5.60;99.90;;;;;;5053943;28;20337;-70
2021/11/09 07:31:53;;;;;;;0.70;0.50;;;5.80;99.90;;;;;;5054275;28;20933;-69
2021/11/09 07:34:19;;;;;;;0.80;0.60;;;5.80;99.90;;;;;;5054476;28;21025;-69
2021/11/09 07:36:45;;;;;;;2.30;2.20;;;5.90;99.90;;;;;;5053837;28;20785;-69
2021/11/09 07:39:11;;;;;;;1.00;0.60;;;6.00;99.90;;;;;;5054393;28;20429;-69
2021/11/09 07:41:36;;;;;;;0.90;0.80;;;6.20;99.90;;;;;;5054922;28;20171;-69
2021/11/09 07:44:04;;;;;;;0.70;0.50;;;6.40;99.90;;;;;;5053249;28;20186;-69
2021/11/09 07:46:31;;;;;;;0.70;0.60;;;6.50;99.90;;;;;;5053912;28;20174;-70
2021/11/09 07:48:57;;;;;;;0.70;0.50;;;6.80;99.90;;;;;;5055017;28;21003;-70
2021/11/09 07:51:23;;;;;;;0.70;0.50;;;7.80;99.90;;;;;;5054436;28;20460;-69
2021/11/09 07:53:49;;;;;;;0.70;0.50;;;8.80;99.90;;;;;;5055434;28;20836;-70
2021/11/09 07:56:18;;;;;;;3.30;3.10;;;9.50;99.90;;;;;;5054879;28;20429;-69
2021/11/09 08:01:28;;;;;;;0.80;0.70;;;10.70;99.90;;;;;;5055169;28;20483;-70
2021/11/09 08:06:28;;;;;;;1.33;1.23;;;12.20;99.90;;;;;;5054891;28;20449;-70
2021/11/09 08:11:42;;;;;;;18.53;1.00;;;13.10;99.90;;;;;;5049665;28;20452;-70
2021/11/09 08:14:09;;;;;;;0.90;0.63;;;13.60;99.90;;;;;;5053548;28;20456;-69
2021/11/09 08:16:35;;;;;;;1.33;1.23;;;13.90;99.90;;;;;;5054245;28;20961;-70
2021/11/09 08:19:00;;;;;;;6.30;3.80;;;14.20;99.90;;;;;;5053718;28;20433;-70
2021/11/09 08:21:27;;;;;;;2.60;1.30;;;14.20;99.90;;;;;;5053858;28;20980;-69
2021/11/09 08:23:52;;;;;;;1.53;1.43;;;13.90;99.90;;;;;;5054804;28;20779;-70
2021/11/09 08:26:22;;;;;;;0.90;0.60;;;14.00;99.90;;;;;;5053412;28;20425;-70
2021/11/09 08:28:49;;;;;;;3.83;1.60;;;13.00;99.90;;;;;;5053088;28;20340;-70
2021/11/09 08:31:18;;;;;;;0.80;0.70;;;12.60;99.90;;;;;;5053236;28;20480;-70
2021/11/09 08:33:43;;;;;;;1.80;0.77;;;12.50;99.90;;;;;;5053233;28;20420;-70
2021/11/09 08:36:14;;;;;;;1.70;1.30;;;12.80;99.90;;;;;;5052835;28;20890;-70
2021/11/09 08:38:40;;;;;;;0.80;0.60;;;12.40;99.90;;;;;;5033108;28;20614;-69
2021/11/09 08:41:07;;;;;;;4.53;3.83;;;12.20;99.90;;;;;;5031725;28;20418;-69
2021/11/09 08:43:36;;;;;;;0.80;0.73;;;13.00;99.90;;;;;;5043755;28;20425;-70
2021/11/09 08:46:17;;;;;;;1.77;0.70;;;12.80;99.90;;;;;;5052332;28;20421;-70
2021/11/09 08:48:46;;;;;;;1.10;1.00;;;13.30;99.90;;;;;;5051396;28;20878;-69
2021/11/09 08:51:12;;;;;;;1.83;1.27;;;13.80;99.90;;;;;;5052220;28;20543;-70
2021/11/09 08:54:11;;;;;;;4.00;2.70;;;14.10;99.90;;;;;;5053459;28;20937;-71
2021/11/09 09:04:13;;;;;;;2.33;0.90;;;15.50;99.90;;;;;;5053693;28;20922;-71
2021/11/09 09:06:40;;;;;;;3.37;1.23;;;15.40;99.90;;;;;;5053496;28;20428;-71
2021/11/09 09:09:06;;;;;;;0.87;0.80;;;15.80;99.90;;;;;;5052680;28;20433;-71
2021/11/09 09:11:33;;;;;;;1.00;0.90;;;16.30;99.90;;;;;;5051885;28;20540;-70
2021/11/09 09:14:00;;;;;;;0.80;0.80;;;16.90;99.90;;;;;;5051658;28;20632;-70
2021/11/09 09:16:28;;;;;;;2.30;1.00;;;16.70;99.90;;;;;;5052423;28;20809;-70
2021/11/09 09:18:55;;;;;;;0.97;0.87;;;16.40;99.90;;;;;;5054295;28;20426;-70
2021/11/09 09:21:39;;;;;;;1.93;0.83;;;16.30;99.90;;;;;;5052457;28;20393;-71
2021/11/09 09:56:54;;;;;;;2.00;1.83;;;15.10;99.90;;;;;;5055573;28;20429;-70
2021/11/09 09:59:25;;;;;;;2.30;2.20;;;14.90;99.90;;;;;;5056100;28;20437;-70
2021/11/09 10:02:11;;;;;;;1.10;1.00;;;15.10;99.90;;;;;;5056034;28;20741;-70
2021/11/09 10:05:11;;;;;;;2.47;2.30;;;15.10;99.90;;;;;;5055823;28;20424;-70
2021/11/09 10:07:51;;;;;;;2.20;1.33;;;16.50;99.90;;;;;;5054489;28;20453;-70
2021/11/09 10:10:26;;;;;;;1.63;1.53;;;17.80;99.90;;;;;;5056040;28;20828;-70
2021/11/09 10:13:20;;;;;;;1.20;1.10;;;19.10;99.90;;;;;;5055816;28;20448;-71
2021/11/09 10:15:52;;;;;;;1.57;1.20;;;18.90;99.90;;;;;;5054604;28;20459;-70
2021/11/09 10:18:19;;;;;;;1.50;1.40;;;18.30;99.90;;;;;;5056916;28;20409;-70
2021/11/09 10:20:49;;;;;;;2.43;1.03;;;18.80;99.90;;;;;;5056096;28;20409;-70
2021/11/09 10:23:19;;;;;;;1.10;1.00;;;19.40;99.80;;;;;;5054856;28;20500;-71
2021/11/09 10:25:45;;;;;;;1.00;0.90;;;20.10;97.70;;;;;;5054068;28;20417;-71
2021/11/09 10:28:18;;;;;;;1.10;1.00;;;21.20;95.70;;;;;;5055283;28;20559;-70
2021/11/09 10:30:59;;;;;;;1.13;1.03;;;21.20;91.30;;;;;;5055174;28;20478;-71
2021/11/09 10:33:27;;;;;;;0.90;0.80;;;20.90;84.80;;;;;;5055340;28;20409;-70
2021/11/09 10:35:56;;;;;;;1.73;1.40;;;22.40;84.40;;;;;;5053509;28;20414;-71
2021/11/09 10:38:30;;;;;;;2.30;1.13;;;21.60;80.00;;;;;;5054761;28;20417;-69
2021/11/09 10:40:57;;;;;;;1.90;1.80;;;22.00;80.60;;;;;;5055184;28;20397;-69
2021/11/09 10:43:24;;;;;;;3.00;1.10;;;20.80;73.70;;;;;;5054799;28;20409;-69
2021/11/09 10:45:50;;;;;;;2.27;2.10;;;22.20;79.80;;;;;;5054414;28;20898;-70
2021/11/09 10:48:17;;;;;;;1.60;1.50;;;22.70;73.40;;;;;;5055000;28;20467;-69
2021/11/09 10:50:52;;;;;;;1.30;1.13;;;23.20;74.00;;;;;;5053700;28;20171;-69
2021/11/09 10:53:42;;;;;;;2.00;1.30;;;23.10;71.30;;;;;;5054712;28;20917;-69
2021/11/09 11:04:39;;;;;;;10.47;1.47;;;23.70;63.80;;;;;;5053671;28;20508;-69
2021/11/09 11:07:07;;;;;;;2.20;2.00;;;24.20;61.30;;;;;;5052324;28;20424;-70
2021/11/09 11:09:35;;;;;;;1.10;0.93;;;24.80;60.50;;;;;;5053913;28;20757;-70
2021/11/09 11:12:09;;;;;;;1.60;1.30;;;25.30;59.30;;;;;;5054017;28;20448;-69
2021/11/09 11:14:40;;;;;;;1.00;0.90;;;25.40;57.60;;;;;;5055689;28;20398;-69
2021/11/09 11:17:09;;;;;;;2.27;1.27;;;26.10;57.90;;;;;;5054258;28;20420;-69
2021/11/09 11:19:44;;;;;;;1.40;1.30;;;26.00;56.60;;;;;;5055947;28;20799;-69
2021/11/09 11:22:29;;;;;;;1.00;0.80;;;26.40;56.50;;;;;;5054301;28;20428;-70
2021/11/09 11:24:57;;;;;;;3.30;1.40;;;27.10;54.20;;;;;;5053129;28;20413;-70
2021/11/09 11:27:32;;;;;;;2.00;1.00;;;24.80;53.60;;;;;;5053484;28;20424;-70
2021/11/09 11:29:58;;;;;;;1.83;1.43;;;24.60;54.20;;;;;;5054262;28;20408;-69
2021/11/09 11:32:25;;;;;;;2.00;1.40;;;24.80;55.30;;;;;;5052281;28;20445;-69
2021/11/09 11:34:52;;;;;;;1.13;0.97;;;23.90;53.90;;;;;;5053912;28;20883;-70
2021/11/09 11:37:19;;;;;;;1.50;1.00;;;22.50;54.90;;;;;;5053944;28;20397;-69
2021/11/09 11:39:46;;;;;;;4.90;1.20;;;22.20;56.50;;;;;;5052696;28;20420;-70
2021/11/09 11:42:17;;;;;;;1.10;0.90;;;21.30;55.30;;;;;;5053520;28;21010;-69
2021/11/09 11:44:53;;;;;;;1.00;0.90;;;22.60;58.40;;;;;;5068929;28;20969;-69
2021/11/09 11:47:21;;;;;;;1.10;0.90;;;22.20;54.90;;;;;;5034063;28;20406;-69
2021/11/09 11:49:53;;;;;;;1.77;1.10;;;22.10;56.30;;;;;;5034019;28;20459;-69
2021/11/09 11:52:25;;;;;;;1.10;0.93;;;20.60;56.30;;;;;;5046600;28;20511;-69
2021/11/09 11:55:13;;;;;;;0.90;0.70;;;21.70;60.30;;;;;;5054390;28;20437;-68
2021/11/09 11:57:41;;;;;;;1.30;1.17;;;23.30;59.80;;;;;;5039868;28;20460;-70
2021/11/09 12:00:28;;;;;;;1.00;0.90;;;22.60;55.70;;;;;;5055135;28;20397;-69
2021/11/09 12:02:54;;;;;;;1.00;0.80;;;21.50;56.30;;;;;;5054588;28;20429;-69
2021/11/09 12:05:51;;;;;;;1.10;0.80;;;22.70;58.90;;;;;;5053464;28;20463;-68
2021/11/09 12:08:37;;;;;;;2.77;2.23;;;22.70;56.30;;;;;;5034101;28;20938;-69
2021/11/09 12:11:05;;;;;;;1.00;0.77;;;23.60;57.60;;;;;;5054001;28;22314;-68
2021/11/09 12:13:50;;;;;;;1.33;1.10;;;23.40;55.90;;;;;;5054788;28;20410;-70
2021/11/09 12:16:39;;;;;;;7.63;3.23;;;24.80;56.20;;;;;;5069647;28;20812;-69
2021/11/09 12:19:04;;;;;;;1.57;1.47;;;24.90;54.60;;;;;;5050855;28;20487;-70
2021/11/09 12:21:34;;;;;;;1.00;0.83;;;26.10;55.50;;;;;;5052878;28;20417;-70
2021/11/09 12:24:16;;;;;;;1.00;0.77;;;26.10;52.20;;;;;;5068700;28;20220;-70
2021/11/09 12:26:57;;;;;;;0.90;0.60;;;23.70;50.20;;;;;;5052683;28;20930;-69
2021/11/09 12:29:43;;;;;;;1.67;1.57;;;24.80;52.60;;;;;;5053122;28;20985;-69
2021/11/09 12:32:21;;;;;;;0.90;0.80;;;22.30;51.00;;;;;;5054781;28;20449;-70
2021/11/09 12:35:02;;;;;;;0.93;0.83;;;23.20;54.80;;;;;;5054746;28;20413;-70
2021/11/09 12:37:29;;;;;;;1.00;0.80;;;25.60;55.00;;;;;;5054443;28;20441;-70
2021/11/09 12:40:34;;;;;;;1.10;1.00;;;25.50;52.50;;;;;;5054679;28;20402;-70
2021/11/09 12:43:09;;;;;;;1.00;0.90;;;23.60;50.40;;;;;;5051643;28;20768;-70
2021/11/09 12:45:38;;;;;;;1.17;1.07;;;24.80;52.90;;;;;;5052532;28;20945;-70
2021/11/09 12:48:06;;;;;;;1.20;0.93;;;24.60;51.60;;;;;;5051089;28;20958;-70
2021/11/09 12:50:34;;;;;;;0.80;0.63;;;24.20;52.30;;;;;;5052802;28;20761;-69
2021/11/09 12:53:11;;;;;;;1.03;0.90;;;22.40;51.60;;;;;;5054118;28;20540;-70
2021/11/09 12:55:39;;;;;;;1.80;1.70;;;22.70;52.70;;;;;;5053783;28;20428;-70
2021/11/09 12:58:15;;;;;;;1.50;1.00;;;22.90;52.50;;;;;;5052737;28;20456;-70
2021/11/09 13:00:45;;;;;;;0.73;0.60;;;20.90;52.10;;;;;;5055079;28;20405;-70
2021/11/09 13:03:27;;;;;;;0.80;0.60;;;22.30;56.10;;;;;;5068542;28;20425;-69
2021/11/09 13:06:01;;;;;;;0.90;0.80;;;21.70;55.00;;;;;;5032632;28;20406;-69
2021/11/09 13:08:38;;;;;;;0.90;0.80;;;22.00;54.20;;;;;;5034141;28;20454;-70
2021/11/09 13:11:05;;;;;;;1.53;0.80;;;22.00;53.70;;;;;;5037270;28;20428;-70
2021/11/09 13:13:30;;;;;;;0.83;0.73;;;23.50;54.60;;;;;;5071377;28;20425;-70
2021/11/09 13:15:58;;;;;;;1.00;0.70;;;23.80;52.20;;;;;;5054917;28;20402;-70
2021/11/09 13:18:31;;;;;;;0.83;0.60;;;24.10;51.70;;;;;;5052822;28;20182;-70
2021/11/09 13:21:05;;;;;;;0.80;0.60;;;22.00;50.20;;;;;;5052649;28;20988;-70
2021/11/09 13:23:31;;;;;;;1.00;0.60;;;23.20;53.40;;;;;;5052116;28;20823;-70
2021/11/09 13:25:58;;;;;;;1.00;0.70;;;22.50;52.60;;;;;;5051781;28;20451;-70
2021/11/09 13:28:26;;;;;;;0.83;0.70;;;22.40;53.60;;;;;;5067613;28;20429;-69
2021/11/09 13:30:58;;;;;;;0.70;0.60;;;21.80;54.10;;;;;;5051645;28;20410;-71
2021/11/09 13:33:25;;;;;;;1.43;0.93;;;21.20;52.90;;;;;;5052065;28;20478;-69
2021/11/09 13:35:52;;;;;;;0.70;0.50;;;21.50;53.50;;;;;;5050385;28;20406;-69
2021/11/09 13:38:25;;;;;;;1.53;0.80;;;21.60;54.30;;;;;;5051423;28;20445;-70
2021/11/09 13:40:58;;;;;;;1.03;0.70;;;22.90;55.00;;;;;;5051794;28;20393;-70
2021/11/09 13:43:31;;;;;;;2.07;1.03;;;22.50;51.60;;;;;;5051537;28;20417;-70
2021/11/09 13:46:01;;;;;;;1.27;0.70;;;20.60;53.00;;;;;;5052223;28;20437;-70
2021/11/09 13:48:29;;;;;;;0.70;0.60;;;21.60;54.70;;;;;;5052454;28;20438;-70
2021/11/09 13:50:59;;;;;;;0.80;0.70;;;21.30;54.80;;;;;;5052501;28;20766;-70
2021/11/09 13:53:38;;;;;;;0.80;0.60;;;20.70;55.80;;;;;;5050184;28;20424;-69
2021/11/09 13:56:05;;;;;;;0.80;0.80;;;20.00;56.20;;;;;;5051174;28;20441;-69
2021/11/09 13:58:31;;;;;;;1.30;0.70;;;21.90;57.50;;;;;;5053897;28;20430;-70
2021/11/09 14:01:00;;;;;;;0.87;0.77;;;21.70;56.20;;;;;;5052199;28;20431;-70
2021/11/09 14:16:41;;;;;;;0.90;0.80;;;20.10;56.70;;;;;;5051119;28;20483;-70
2021/11/09 14:19:10;;;;;;;0.70;0.50;;;19.70;57.80;;;;;;5051087;28;20501;-70
2021/11/09 14:21:37;;;;;;;0.70;0.60;;;19.70;58.10;;;;;;5051627;28;20407;-70
2021/11/09 14:24:16;;;;;;;0.90;0.80;;;20.30;59.00;;;;;;5050801;28;20471;-71
2021/11/09 14:26:43;;;;;;;0.80;0.70;;;20.50;59.10;;;;;;5051100;28;20428;-71
2021/11/09 14:29:21;;;;;;;1.47;1.37;;;20.40;58.00;;;;;;5049431;28;20487;-70
2021/11/09 14:32:16;;;;;;;1.23;0.60;;;19.80;58.80;;;;;;5051321;28;20456;-70
2021/11/09 14:35:23;;;;;;;0.90;0.80;;;18.20;58.80;;;;;;5050080;28;20894;-70
2021/11/09 14:37:54;;;;;;;0.70;0.50;;;17.00;64.20;;;;;;5010992;28;20441;-70
2021/11/09 14:40:34;;;;;;;0.80;0.60;;;16.30;67.70;;;;;;5051408;28;20404;-70
2021/11/09 14:43:17;;;;;;;0.77;0.67;;;15.30;73.40;;;;;;5055035;28;20766;-70
2021/11/09 14:48:29;;;;;;;1.00;0.90;;;14.90;86.10;;;;;;5054698;28;20445;-70
2021/11/09 14:51:14;;;;;;;1.27;0.97;;;15.00;86.30;;;;;;5055001;28;20413;-70
2021/11/09 14:54:31;;;;;;;0.80;0.60;;;15.10;84.10;;;;;;5055015;28;20409;-69
2021/11/09 14:56:36;;;;;;;0.80;0.60;;;15.20;84.10;;;;;;5048738;28;20842;-71
2021/11/09 14:59:10;;;;;;;0.83;0.70;;;15.40;82.30;;;;;;5054250;28;20829;-70
2021/11/09 15:01:42;;;;;;;1.63;0.97;;;15.80;82.70;;;;;;5054680;28;20467;-70
2021/11/09 15:04:15;;;;;;;0.70;0.50;;;15.20;82.40;;;;;;5047034;28;20417;-70
2021/11/09 15:12:07;;;;;;;0.70;0.50;;;13.50;94.20;;;;;;5054552;28;20514;-69
2021/11/09 15:30:37;;;;;;;0.70;0.50;;;13.00;99.90;;;;;;5053947;28;20413;-70
2021/11/09 15:33:03;;;;;;;0.70;0.50;;;12.80;99.90;;;;;;5052859;28;20869;-70
2021/11/09 15:35:44;;;;;;;6.67;2.10;;;12.30;99.90;;;;;;5053416;28;20459;-70
2021/11/09 15:38:09;;;;;;;0.70;0.50;;;11.60;99.90;;;;;;5053862;28;20430;-69
2021/11/09 15:40:35;;;;;;;0.70;0.50;;;11.60;99.90;;;;;;5053754;28;20471;-70
2021/11/09 15:43:01;;;;;;;0.70;0.50;;;11.40;99.90;;;;;;5054025;28;20203;-69
2021/11/09 15:45:27;;;;;;;0.70;0.50;;;11.20;99.90;;;;;;5050542;28;20209;-69
2021/11/09 15:47:53;;;;;;;0.70;0.60;;;11.00;99.90;;;;;;5053245;28;20457;-69
2021/11/09 15:50:18;;;;;;;0.70;0.60;;;10.80;99.90;;;;;;5053300;28;20464;-70
2021/11/09 15:52:44;;;;;;;0.80;0.80;;;10.70;99.90;;;;;;5053418;28;20240;-70
2021/11/09 15:55:10;;;;;;;0.70;0.60;;;10.60;99.90;;;;;;5053503;28;20191;-70
2021/11/09 15:57:37;;;;;;;0.70;0.50;;;10.60;99.90;;;;;;5053437;28;20927;-70
2021/11/09 16:00:07;;;;;;;0.80;0.80;;;10.50;99.90;;;;;;5051744;28;20171;-70
2021/11/09 16:02:33;;;;;;;5.37;0.90;;;10.50;99.90;;;;;;5053414;28;20496;-69